sensor_id;sensor_type;location;lat;lon;timestamp;pressure;altitude;pressure_sealevel;temperature;humidity
8894;BME280;4483;48.622;9.230;2023-07-31T00:00:38;97956.59;;;14.37;100.00
8894;BME280;4483;48.622;9.230;2023-07-31T00:03:05;97947.47;;;14.30;100.00
8894;BME280;4483;48.622;9.230;2023-07-31T00:05:32;97958.59;;;14.32;100.00
8894;BME280;4483;48.622;9.230;2023-07-31T00:07:58;97955.16;;;14.31;100.00
8894;BME280;4483;48.622;9.230;2023-07-31T00:10:25;97949.22;;;14.29;100.00
8894;BME280;4483;48.622;9.230;2023-07-31T00:12:51;97953.72;;;14.26;100.00
8894;BME280;4483;48.622;9.230;2023-07-31T00:15:18;97957.22;;;14.25;100.00
8894;BME280;4483;48.622;9.230;2023-07-31T00:17:46;97957.28;;;14.23;100.00
8894;BME280;4483;48.622;9.230;2023-07-31T00:20:13;97962.47;;;14.23;100.00
8894;BME280;4483;48.622;9.230;2023-07-31T00:22:39;97965.06;;;14.23;100.00
8894;BME280;4483;48.622;9.230;2023-07-31T00:25:06;97971.19;;;14.22;100.00
8894;BME280;4483;48.622;9.230;2023-07-31T00:27:33;97961.03;;;14.18;100.00
8894;BME280;4483;48.622;9.230;2023-07-31T00:30:00;97971.56;;;14.14;100.00
8894;BME280;4483;48.622;9.230;2023-07-31T00:32:26;97969.06;;;14.13;100.00
8894;BME280;4483;48.622;9.230;2023-07-31T00:34:54;97971.75;;;14.11;100.00
8894;BME280;4483;48.622;9.230;2023-07-31T00:37:21;97971.06;;;14.08;100.00
8894;BME280;4483;48.622;9.230;2023-07-31T00:39:48;97969.56;;;14.04;100.00
8894;BME280;4483;48.622;9.230;2023-07-31T00:42:14;97962.69;;;14.03;100.00
8894;BME280;4483;48.622;9.230;2023-07-31T00:44:41;97965.44;;;14.00;100.00
8894;BME280;4483;48.622;9.230;2023-07-31T00:47:07;97967.09;;;14.01;100.00
8894;BME280;4483;48.622;9.230;2023-07-31T00:49:34;97965.53;;;13.98;100.00
8894;BME280;4483;48.622;9.230;2023-07-31T00:52:03;97960.44;;;13.97;100.00
8894;BME280;4483;48.622;9.230;2023-07-31T00:54:29;97955.38;;;13.94;100.00
8894;BME280;4483;48.622;9.230;2023-07-31T00:56:56;97958.16;;;13.91;100.00
8894;BME280;4483;48.622;9.230;2023-07-31T00:59:23;97952.22;;;13.89;100.00
8894;BME280;4483;48.622;9.230;2023-07-31T01:01:50;97945.50;;;13.85;100.00
8894;BME280;4483;48.622;9.230;2023-07-31T01:04:17;97956.94;;;13.81;100.00
8894;BME280;4483;48.622;9.230;2023-07-31T01:06:48;97971.81;;;13.77;100.00
8894;BME280;4483;48.622;9.230;2023-07-31T01:09:25;97962.59;;;13.72;100.00
8894;BME280;4483;48.622;9.230;2023-07-31T01:11:57;97957.59;;;13.69;100.00
8894;BME280;4483;48.622;9.230;2023-07-31T01:14:25;97953.38;;;13.66;100.00
8894;BME280;4483;48.622;9.230;2023-07-31T01:16:51;97945.69;;;13.65;100.00
8894;BME280;4483;48.622;9.230;2023-07-31T01:19:21;97952.72;;;13.63;100.00
8894;BME280;4483;48.622;9.230;2023-07-31T01:22:02;97944.34;;;13.58;100.00
8894;BME280;4483;48.622;9.230;2023-07-31T01:24:41;97935.72;;;13.57;100.00
8894;BME280;4483;48.622;9.230;2023-07-31T01:27:21;97931.56;;;13.55;100.00
8894;BME280;4483;48.622;9.230;2023-07-31T01:29:54;97923.03;;;13.53;100.00
8894;BME280;4483;48.622;9.230;2023-07-31T01:32:22;97928.22;;;13.53;100.00
8894;BME280;4483;48.622;9.230;2023-07-31T01:34:49;97917.09;;;13.51;100.00
8894;BME280;4483;48.622;9.230;2023-07-31T01:37:17;97919.78;;;13.49;100.00
8894;BME280;4483;48.622;9.230;2023-07-31T01:39:43;97922.44;;;13.48;100.00
8894;BME280;4483;48.622;9.230;2023-07-31T01:42:10;97913.97;;;13.44;100.00
8894;BME280;4483;48.622;9.230;2023-07-31T01:44:38;97912.22;;;13.45;100.00
8894;BME280;4483;48.622;9.230;2023-07-31T01:47:05;97912.41;;;13.42;100.00
8894;BME280;4483;48.622;9.230;2023-07-31T01:49:32;97914.22;;;13.40;100.00
8894;BME280;4483;48.622;9.230;2023-07-31T01:51:58;97917.78;;;13.37;100.00
8894;BME280;4483;48.622;9.230;2023-07-31T01:54:25;97913.75;;;13.32;100.00
8894;BME280;4483;48.622;9.230;2023-07-31T01:56:52;97910.41;;;13.30;100.00
8894;BME280;4483;48.622;9.230;2023-07-31T01:59:18;97909.72;;;13.26;100.00
8894;BME280;4483;48.622;9.230;2023-07-31T02:01:46;97905.56;;;13.24;100.00
8894;BME280;4483;48.622;9.230;2023-07-31T02:04:13;97915.91;;;13.24;100.00
8894;BME280;4483;48.622;9.230;2023-07-31T02:06:39;97908.16;;;13.24;100.00
8894;BME280;4483;48.622;9.230;2023-07-31T02:09:06;97909.97;;;13.22;100.00
8894;BME280;4483;48.622;9.230;2023-07-31T02:11:33;97901.44;;;13.20;100.00
8894;BME280;4483;48.622;9.230;2023-07-31T02:13:59;97909.13;;;13.21;100.00
8894;BME280;4483;48.622;9.230;2023-07-31T02:16:26;97904.81;;;13.22;100.00
8894;BME280;4483;48.622;9.230;2023-07-31T02:18:54;97906.47;;;13.23;100.00
8894;BME280;4483;48.622;9.230;2023-07-31T02:21:20;97900.53;;;13.21;100.00
8894;BME280;4483;48.622;9.230;2023-07-31T02:23:47;97896.19;;;13.21;100.00
8894;BME280;4483;48.622;9.230;2023-07-31T02:26:14;97893.59;;;13.21;100.00
8894;BME280;4483;48.622;9.230;2023-07-31T02:28:40;97892.06;;;13.17;100.00
8894;BME280;4483;48.622;9.230;2023-07-31T02:31:08;97884.47;;;13.14;100.00
8894;BME280;4483;48.622;9.230;2023-07-31T02:33:35;97885.47;;;13.11;100.00
8894;BME280;4483;48.622;9.230;2023-07-31T02:36:03;97882.09;;;13.09;100.00
8894;BME280;4483;48.622;9.230;2023-07-31T02:38:30;97878.03;;;13.05;100.00
8894;BME280;4483;48.622;9.230;2023-07-31T02:40:56;97881.59;;;13.03;100.00
8894;BME280;4483;48.622;9.230;2023-07-31T02:43:23;97872.50;;;12.94;100.00
8894;BME280;4483;48.622;9.230;2023-07-31T02:45:51;97874.94;;;12.97;100.00
8894;BME280;4483;48.622;9.230;2023-07-31T02:48:18;97880.19;;;12.96;100.00
8894;BME280;4483;48.622;9.230;2023-07-31T02:50:44;97880.19;;;12.96;100.00
8894;BME280;4483;48.622;9.230;2023-07-31T02:53:12;97884.53;;;12.95;100.00
8894;BME280;4483;48.622;9.230;2023-07-31T02:55:39;97887.09;;;12.95;100.00
8894;BME280;4483;48.622;9.230;2023-07-31T02:58:06;97886.25;;;12.95;100.00
8894;BME280;4483;48.622;9.230;2023-07-31T03:00:32;97887.25;;;12.92;100.00
8894;BME280;4483;48.622;9.230;2023-07-31T03:02:59;97870.91;;;12.92;100.00
8894;BME280;4483;48.622;9.230;2023-07-31T03:05:26;97872.56;;;12.93;100.00
8894;BME280;4483;48.622;9.230;2023-07-31T03:07:52;97864.88;;;12.91;100.00
8894;BME280;4483;48.622;9.230;2023-07-31T03:10:20;97860.72;;;12.89;100.00
8894;BME280;4483;48.622;9.230;2023-07-31T03:12:47;97859.88;;;12.88;100.00
8894;BME280;4483;48.622;9.230;2023-07-31T03:15:14;97859.03;;;12.88;100.00
8894;BME280;4483;48.622;9.230;2023-07-31T03:17:40;97861.69;;;12.86;100.00
8894;BME280;4483;48.622;9.230;2023-07-31T03:20:08;97854.91;;;12.84;100.00
8894;BME280;4483;48.622;9.230;2023-07-31T03:22:34;97851.66;;;12.80;100.00
8894;BME280;4483;48.622;9.230;2023-07-31T03:25:01;97858.63;;;12.78;100.00
8894;BME280;4483;48.622;9.230;2023-07-31T03:27:29;97863.06;;;12.76;100.00
8894;BME280;4483;48.622;9.230;2023-07-31T03:29:56;97865.78;;;12.73;100.00
8894;BME280;4483;48.622;9.230;2023-07-31T03:32:23;97860.72;;;12.72;100.00
8894;BME280;4483;48.622;9.230;2023-07-31T03:34:49;97865.78;;;12.73;100.00
8894;BME280;4483;48.622;9.230;2023-07-31T03:37:16;97855.53;;;12.72;100.00
8894;BME280;4483;48.622;9.230;2023-07-31T03:39:42;97865.03;;;12.71;100.00
8894;BME280;4483;48.622;9.230;2023-07-31T03:42:09;97864.13;;;12.72;100.00
8894;BME280;4483;48.622;9.230;2023-07-31T03:44:37;97871.81;;;12.74;100.00
8894;BME280;4483;48.622;9.230;2023-07-31T03:47:04;97865.88;;;12.72;100.00
8894;BME280;4483;48.622;9.230;2023-07-31T03:49:31;97859.09;;;12.69;100.00
8894;BME280;4483;48.622;9.230;2023-07-31T03:51:58;97866.09;;;12.67;100.00
8894;BME280;4483;48.622;9.230;2023-07-31T03:54:24;97874.84;;;12.65;100.00
8894;BME280;4483;48.622;9.230;2023-07-31T03:56:51;97876.59;;;12.64;100.00
8894;BME280;4483;48.622;9.230;2023-07-31T03:59:17;97868.91;;;12.63;100.00
8894;BME280;4483;48.622;9.230;2023-07-31T04:01:45;97878.28;;;12.65;100.00
8894;BME280;4483;48.622;9.230;2023-07-31T04:04:12;97865.19;;;12.68;100.00
8894;BME280;4483;48.622;9.230;2023-07-31T04:06:39;97865.19;;;12.68;100.00
8894;BME280;4483;48.622;9.230;2023-07-31T04:09:05;97877.13;;;12.71;100.00
8894;BME280;4483;48.622;9.230;2023-07-31T04:11:32;97872.69;;;12.73;100.00
8894;BME280;4483;48.622;9.230;2023-07-31T04:13:58;97877.75;;;12.76;100.00
8894;BME280;4483;48.622;9.230;2023-07-31T04:16:25;97868.09;;;12.79;100.00
8894;BME280;4483;48.622;9.230;2023-07-31T04:18:53;97868.84;;;12.81;100.00
8894;BME280;4483;48.622;9.230;2023-07-31T04:21:19;97872.13;;;12.85;100.00
8894;BME280;4483;48.622;9.230;2023-07-31T04:23:46;97865.94;;;12.87;100.00
8894;BME280;4483;48.622;9.230;2023-07-31T04:26:13;97858.06;;;12.90;100.00
8894;BME280;4483;48.622;9.230;2023-07-31T04:28:39;97859.44;;;12.97;100.00
8894;BME280;4483;48.622;9.230;2023-07-31T04:31:06;97855.72;;;13.03;100.00
8894;BME280;4483;48.622;9.230;2023-07-31T04:33:32;97852.06;;;13.07;100.00
8894;BME280;4483;48.622;9.230;2023-07-31T04:36:00;97853.53;;;13.13;100.00
8894;BME280;4483;48.622;9.230;2023-07-31T04:38:27;97840.34;;;13.17;100.00
8894;BME280;4483;48.622;9.230;2023-07-31T04:40:54;97839.34;;;13.20;100.00
8894;BME280;4483;48.622;9.230;2023-07-31T04:43:20;97848.56;;;13.25;100.00
8894;BME280;4483;48.622;9.230;2023-07-31T04:45:47;97847.72;;;13.25;100.00
8894;BME280;4483;48.622;9.230;2023-07-31T04:48:15;97851.81;;;13.29;100.00
8894;BME280;4483;48.622;9.230;2023-07-31T04:50:42;97853.25;;;13.34;100.00
8894;BME280;4483;48.622;9.230;2023-07-31T04:53:10;97851.19;;;13.41;100.00
8894;BME280;4483;48.622;9.230;2023-07-31T04:55:37;97849.22;;;13.46;100.00
8894;BME280;4483;48.622;9.230;2023-07-31T04:58:03;97854.91;;;13.52;100.00
8894;BME280;4483;48.622;9.230;2023-07-31T05:00:30;97851.16;;;13.58;100.00
8894;BME280;4483;48.622;9.230;2023-07-31T05:02:57;97849.91;;;13.65;100.00
8894;BME280;4483;48.622;9.230;2023-07-31T05:05:23;97839.31;;;13.69;100.00
8894;BME280;4483;48.622;9.230;2023-07-31T05:07:50;97846.69;;;13.77;100.00
8894;BME280;4483;48.622;9.230;2023-07-31T05:10:18;97842.09;;;13.82;100.00
8894;BME280;4483;48.622;9.230;2023-07-31T05:12:45;97843.44;;;13.89;100.00
8894;BME280;4483;48.622;9.230;2023-07-31T05:15:11;97849.94;;;13.96;100.00
8894;BME280;4483;48.622;9.230;2023-07-31T05:17:38;97844.44;;;14.02;100.00
8894;BME280;4483;48.622;9.230;2023-07-31T05:20:06;97850.22;;;14.07;100.00
8894;BME280;4483;48.622;9.230;2023-07-31T05:22:33;97855.06;;;14.13;100.00
8894;BME280;4483;48.622;9.230;2023-07-31T05:24:59;97851.22;;;14.20;100.00
8894;BME280;4483;48.622;9.230;2023-07-31T05:27:27;97853.44;;;14.28;100.00
8894;BME280;4483;48.622;9.230;2023-07-31T05:29:54;97855.59;;;14.35;100.00
8894;BME280;4483;48.622;9.230;2023-07-31T05:32:20;97848.81;;;14.48;100.00
8894;BME280;4483;48.622;9.230;2023-07-31T05:34:47;97845.00;;;14.69;100.00
8894;BME280;4483;48.622;9.230;2023-07-31T05:37:14;97851.81;;;14.86;100.00
8894;BME280;4483;48.622;9.230;2023-07-31T05:39:40;97841.03;;;15.07;100.00
8894;BME280;4483;48.622;9.230;2023-07-31T05:42:07;97843.13;;;15.31;100.00
8894;BME280;4483;48.622;9.230;2023-07-31T05:44:35;97833.88;;;15.55;100.00
8894;BME280;4483;48.622;9.230;2023-07-31T05:47:02;97836.66;;;15.80;100.00
8894;BME280;4483;48.622;9.230;2023-07-31T05:49:29;97838.28;;;16.09;100.00
8894;BME280;4483;48.622;9.230;2023-07-31T05:51:55;97842.59;;;16.37;100.00
8894;BME280;4483;48.622;9.230;2023-07-31T05:54:22;97836.03;;;16.58;100.00
8894;BME280;4483;48.622;9.230;2023-07-31T05:56:48;97828.22;;;16.84;100.00
8894;BME280;4483;48.622;9.230;2023-07-31T05:59:16;97831.69;;;17.10;100.00
8894;BME280;4483;48.622;9.230;2023-07-31T06:01:44;97827.84;;;17.41;98.85
8894;BME280;4483;48.622;9.230;2023-07-31T06:04:11;97829.31;;;17.70;91.58
8894;BME280;4483;48.622;9.230;2023-07-31T06:06:37;97827.41;;;17.97;92.77
8894;BME280;4483;48.622;9.230;2023-07-31T06:09:05;97824.66;;;18.11;89.54
8894;BME280;4483;48.622;9.230;2023-07-31T06:11:32;97820.16;;;18.13;89.15
8894;BME280;4483;48.622;9.230;2023-07-31T06:13:59;97825.59;;;18.10;85.96
8894;BME280;4483;48.622;9.230;2023-07-31T06:16:25;97821.53;;;18.06;83.94
8894;BME280;4483;48.622;9.230;2023-07-31T06:18:53;97826.53;;;18.09;84.44
8894;BME280;4483;48.622;9.230;2023-07-31T06:21:20;97831.75;;;18.09;83.37
8894;BME280;4483;48.622;9.230;2023-07-31T06:23:47;97827.78;;;18.16;83.60
8894;BME280;4483;48.622;9.230;2023-07-31T06:26:14;97825.97;;;18.17;83.28
8894;BME280;4483;48.622;9.230;2023-07-31T06:28:41;97822.44;;;18.18;83.53
8894;BME280;4483;48.622;9.230;2023-07-31T06:31:08;97821.41;;;18.20;82.89
8894;BME280;4483;48.622;9.230;2023-07-31T06:33:34;97825.66;;;18.21;83.56
8894;BME280;4483;48.622;9.230;2023-07-31T06:36:03;97826.38;;;18.23;83.40
8894;BME280;4483;48.622;9.230;2023-07-31T06:38:29;97826.78;;;18.30;83.45
8894;BME280;4483;48.622;9.230;2023-07-31T06:40:56;97825.41;;;18.37;81.60
8894;BME280;4483;48.622;9.230;2023-07-31T06:43:22;97829.34;;;18.42;80.84
8894;BME280;4483;48.622;9.230;2023-07-31T06:45:49;97833.94;;;18.51;81.00
8894;BME280;4483;48.622;9.230;2023-07-31T06:48:16;97833.88;;;18.64;79.82
8894;BME280;4483;48.622;9.230;2023-07-31T06:50:43;97829.31;;;18.78;79.19
8894;BME280;4483;48.622;9.230;2023-07-31T06:53:11;97830.81;;;18.93;78.61
8894;BME280;4483;48.622;9.230;2023-07-31T06:55:37;97827.75;;;19.11;78.56
8894;BME280;4483;48.622;9.230;2023-07-31T06:58:04;97827.13;;;19.42;78.77
8894;BME280;4483;48.622;9.230;2023-07-31T07:00:31;97829.50;;;20.00;77.89
8894;BME280;4483;48.622;9.230;2023-07-31T07:02:58;97821.59;;;20.44;76.79
8894;BME280;4483;48.622;9.230;2023-07-31T07:05:25;97821.53;;;20.66;74.65
8894;BME280;4483;48.622;9.230;2023-07-31T07:07:52;97825.13;;;20.86;72.71
8894;BME280;4483;48.622;9.230;2023-07-31T07:10:20;97828.22;;;20.91;70.27
8894;BME280;4483;48.622;9.230;2023-07-31T07:12:47;97817.84;;;21.00;70.18
8894;BME280;4483;48.622;9.230;2023-07-31T07:15:13;97826.16;;;21.26;68.57
8894;BME280;4483;48.622;9.230;2023-07-31T07:17:40;97822.59;;;21.27;66.59
8894;BME280;4483;48.622;9.230;2023-07-31T07:20:08;97828.59;;;21.18;64.05
8894;BME280;4483;48.622;9.230;2023-07-31T07:22:34;97827.31;;;21.13;63.70
8894;BME280;4483;48.622;9.230;2023-07-31T07:25:01;97823.41;;;21.07;63.72
8894;BME280;4483;48.622;9.230;2023-07-31T07:27:29;97819.25;;;21.05;63.78
8894;BME280;4483;48.622;9.230;2023-07-31T07:29:56;97820.34;;;21.02;63.28
8894;BME280;4483;48.622;9.230;2023-07-31T07:32:22;97813.09;;;20.94;63.25
8894;BME280;4483;48.622;9.230;2023-07-31T07:34:49;97822.28;;;20.89;63.06
8894;BME280;4483;48.622;9.230;2023-07-31T07:37:16;97815.75;;;20.83;63.30
8894;BME280;4483;48.622;9.230;2023-07-31T07:39:43;97820.16;;;20.83;63.86
8894;BME280;4483;48.622;9.230;2023-07-31T07:42:10;97812.50;;;21.02;63.75
8894;BME280;4483;48.622;9.230;2023-07-31T07:44:38;97811.78;;;21.00;63.54
8894;BME280;4483;48.622;9.230;2023-07-31T07:47:05;97810.84;;;20.90;63.88
8894;BME280;4483;48.622;9.230;2023-07-31T07:49:32;97804.53;;;20.92;63.66
8894;BME280;4483;48.622;9.230;2023-07-31T07:51:59;97799.72;;;20.97;63.55
8894;BME280;4483;48.622;9.230;2023-07-31T07:54:26;97813.00;;;21.17;63.77
8894;BME280;4483;48.622;9.230;2023-07-31T07:56:52;97806.38;;;21.43;63.83
8894;BME280;4483;48.622;9.230;2023-07-31T07:59:19;97807.09;;;21.75;63.35
8894;BME280;4483;48.622;9.230;2023-07-31T08:01:47;97800.25;;;22.33;62.05
8894;BME280;4483;48.622;9.230;2023-07-31T08:04:13;97790.25;;;22.76;58.92
8894;BME280;4483;48.622;9.230;2023-07-31T08:06:40;97804.47;;;22.83;57.40
8894;BME280;4483;48.622;9.230;2023-07-31T08:09:07;97803.66;;;22.63;57.98
8894;BME280;4483;48.622;9.230;2023-07-31T08:11:34;97803.84;;;22.51;58.44
8894;BME280;4483;48.622;9.230;2023-07-31T08:14:01;97797.38;;;22.55;58.37
8894;BME280;4483;48.622;9.230;2023-07-31T08:16:28;97791.19;;;22.65;58.29
8894;BME280;4483;48.622;9.230;2023-07-31T08:18:56;97783.56;;;23.01;57.85
8894;BME280;4483;48.622;9.230;2023-07-31T08:21:23;97786.25;;;23.56;57.81
8894;BME280;4483;48.622;9.230;2023-07-31T08:23:49;97780.66;;;23.96;53.66
8894;BME280;4483;48.622;9.230;2023-07-31T08:26:16;97773.44;;;24.25;53.00
8894;BME280;4483;48.622;9.230;2023-07-31T08:28:43;97763.94;;;24.59;52.22
8894;BME280;4483;48.622;9.230;2023-07-31T08:31:10;97776.34;;;25.02;51.56
8894;BME280;4483;48.622;9.230;2023-07-31T08:33:37;97770.47;;;25.34;50.41
8894;BME280;4483;48.622;9.230;2023-07-31T08:36:05;97767.91;;;25.75;49.66
8894;BME280;4483;48.622;9.230;2023-07-31T08:38:32;97763.44;;;26.10;49.12
8894;BME280;4483;48.622;9.230;2023-07-31T08:40:58;97761.06;;;26.40;46.66
8894;BME280;4483;48.622;9.230;2023-07-31T08:43:26;97761.88;;;26.41;45.13
8894;BME280;4483;48.622;9.230;2023-07-31T08:45:53;97760.72;;;26.43;45.40
8894;BME280;4483;48.622;9.230;2023-07-31T08:48:21;97749.03;;;26.62;45.78
8894;BME280;4483;48.622;9.230;2023-07-31T08:50:49;97741.94;;;26.87;44.72
8894;BME280;4483;48.622;9.230;2023-07-31T08:53:17;97735.31;;;27.15;44.29
8894;BME280;4483;48.622;9.230;2023-07-31T08:55:44;97743.59;;;27.12;43.82
8894;BME280;4483;48.622;9.230;2023-07-31T08:58:12;97750.22;;;27.32;43.16
8894;BME280;4483;48.622;9.230;2023-07-31T09:00:39;97744.03;;;27.55;43.10
8894;BME280;4483;48.622;9.230;2023-07-31T09:03:09;97731.16;;;27.52;42.01
8894;BME280;4483;48.622;9.230;2023-07-31T09:05:36;97736.19;;;27.70;41.68
8894;BME280;4483;48.622;9.230;2023-07-31T09:08:07;97740.25;;;27.50;41.60
8894;BME280;4483;48.622;9.230;2023-07-31T09:10:40;97743.91;;;27.17;41.88
8894;BME280;4483;48.622;9.230;2023-07-31T09:13:07;97744.59;;;26.62;42.69
8894;BME280;4483;48.622;9.230;2023-07-31T09:15:35;97731.16;;;26.24;43.83
8894;BME280;4483;48.622;9.230;2023-07-31T09:18:03;97738.59;;;26.36;44.76
8894;BME280;4483;48.622;9.230;2023-07-31T09:20:30;97749.84;;;26.38;44.17
8894;BME280;4483;48.622;9.230;2023-07-31T09:23:05;97737.47;;;26.39;44.43
8894;BME280;4483;48.622;9.230;2023-07-31T09:25:32;97741.56;;;26.33;45.32
8894;BME280;4483;48.622;9.230;2023-07-31T09:28:02;97740.47;;;26.02;45.42
8894;BME280;4483;48.622;9.230;2023-07-31T09:30:29;97738.03;;;25.75;45.01
8894;BME280;4483;48.622;9.230;2023-07-31T09:33:01;97739.91;;;25.82;44.89
8894;BME280;4483;48.622;9.230;2023-07-31T09:35:30;97737.06;;;25.76;45.38
8894;BME280;4483;48.622;9.230;2023-07-31T09:37:58;97751.16;;;25.59;45.98
8894;BME280;4483;48.622;9.230;2023-07-31T09:40:27;97745.06;;;25.58;45.88
8894;BME280;4483;48.622;9.230;2023-07-31T09:42:58;97736.53;;;25.64;45.66
8894;BME280;4483;48.622;9.230;2023-07-31T09:45:26;97728.81;;;25.71;46.37
8894;BME280;4483;48.622;9.230;2023-07-31T09:47:53;97717.47;;;25.45;46.82
8894;BME280;4483;48.622;9.230;2023-07-31T09:50:21;97718.16;;;25.47;47.21
8894;BME280;4483;48.622;9.230;2023-07-31T09:52:48;97713.69;;;25.47;46.80
8894;BME280;4483;48.622;9.230;2023-07-31T09:55:15;97701.06;;;25.33;46.69
8894;BME280;4483;48.622;9.230;2023-07-31T09:57:44;97692.22;;;25.17;47.08
8894;BME280;4483;48.622;9.230;2023-07-31T10:00:12;97696.81;;;25.15;47.53
8894;BME280;4483;48.622;9.230;2023-07-31T10:02:45;97682.47;;;25.09;47.63
8894;BME280;4483;48.622;9.230;2023-07-31T10:05:12;97684.13;;;25.10;48.21
8894;BME280;4483;48.622;9.230;2023-07-31T10:07:41;97681.44;;;25.02;48.30
8894;BME280;4483;48.622;9.230;2023-07-31T10:10:09;97671.66;;;24.95;48.70
8894;BME280;4483;48.622;9.230;2023-07-31T10:12:37;97661.13;;;24.95;48.70
8894;BME280;4483;48.622;9.230;2023-07-31T10:15:05;97677.66;;;25.30;48.04
8894;BME280;4483;48.622;9.230;2023-07-31T10:17:32;97659.72;;;25.75;47.43
8894;BME280;4483;48.622;9.230;2023-07-31T10:20:02;97636.88;;;26.16;46.34
8894;BME280;4483;48.622;9.230;2023-07-31T10:22:30;97644.13;;;26.87;46.30
8894;BME280;4483;48.622;9.230;2023-07-31T10:24:58;97644.34;;;27.40;44.34
8894;BME280;4483;48.622;9.230;2023-07-31T10:27:26;97636.75;;;27.75;42.92
8894;BME280;4483;48.622;9.230;2023-07-31T10:29:54;97633.22;;;28.14;43.03
8894;BME280;4483;48.622;9.230;2023-07-31T10:32:22;97632.34;;;28.21;41.31
8894;BME280;4483;48.622;9.230;2023-07-31T10:34:50;97635.84;;;28.14;40.57
8894;BME280;4483;48.622;9.230;2023-07-31T10:37:27;97632.84;;;28.17;40.53
8894;BME280;4483;48.622;9.230;2023-07-31T10:39:59;97618.97;;;28.15;40.66
8894;BME280;4483;48.622;9.230;2023-07-31T10:42:33;97608.72;;;28.34;40.47
8894;BME280;4483;48.622;9.230;2023-07-31T10:45:02;97616.84;;;28.10;40.55
8894;BME280;4483;48.622;9.230;2023-07-31T10:47:29;97623.78;;;28.56;40.78
8894;BME280;4483;48.622;9.230;2023-07-31T10:50:26;97614.69;;;29.03;39.30
8894;BME280;4483;48.622;9.230;2023-07-31T10:52:56;97615.69;;;29.02;39.20
8894;BME280;4483;48.622;9.230;2023-07-31T10:55:26;97607.41;;;29.19;38.85
8894;BME280;4483;48.622;9.230;2023-07-31T10:57:54;97606.41;;;29.20;38.98
8894;BME280;4483;48.622;9.230;2023-07-31T11:00:22;97607.84;;;29.52;39.07
8894;BME280;4483;48.622;9.230;2023-07-31T11:03:02;97608.16;;;29.78;38.45
8894;BME280;4483;48.622;9.230;2023-07-31T11:05:49;97602.41;;;29.75;38.61
8894;BME280;4483;48.622;9.230;2023-07-31T11:08:21;97589.94;;;29.96;38.67
8894;BME280;4483;48.622;9.230;2023-07-31T11:10:49;97598.38;;;30.42;38.33
8894;BME280;4483;48.622;9.230;2023-07-31T11:13:16;97597.00;;;30.25;37.61
8894;BME280;4483;48.622;9.230;2023-07-31T11:15:43;97595.25;;;29.96;36.86
8894;BME280;4483;48.622;9.230;2023-07-31T11:18:10;97593.78;;;29.58;37.33
8894;BME280;4483;48.622;9.230;2023-07-31T11:20:38;97598.16;;;29.01;37.88
8894;BME280;4483;48.622;9.230;2023-07-31T11:23:07;97604.44;;;28.70;39.05
8894;BME280;4483;48.622;9.230;2023-07-31T11:25:36;97598.53;;;28.23;39.73
8894;BME280;4483;48.622;9.230;2023-07-31T11:28:04;97591.16;;;27.88;40.48
8894;BME280;4483;48.622;9.230;2023-07-31T11:30:31;97600.25;;;27.63;41.17
8894;BME280;4483;48.622;9.230;2023-07-31T11:33:00;97595.69;;;27.49;42.19
8894;BME280;4483;48.622;9.230;2023-07-31T11:35:28;97594.88;;;27.48;41.67
8894;BME280;4483;48.622;9.230;2023-07-31T11:37:55;97601.69;;;27.43;41.89
8894;BME280;4483;48.622;9.230;2023-07-31T11:40:22;97595.59;;;27.34;42.36
8894;BME280;4483;48.622;9.230;2023-07-31T11:42:56;97592.78;;;27.28;41.99
8894;BME280;4483;48.622;9.230;2023-07-31T11:45:25;97598.16;;;27.12;42.44
8894;BME280;4483;48.622;9.230;2023-07-31T11:47:53;97589.56;;;27.02;42.78
8894;BME280;4483;48.622;9.230;2023-07-31T11:50:20;97596.53;;;26.95;43.07
8894;BME280;4483;48.622;9.230;2023-07-31T11:52:48;97602.66;;;26.95;43.64
8894;BME280;4483;48.622;9.230;2023-07-31T11:55:17;97584.66;;;26.91;44.22
8894;BME280;4483;48.622;9.230;2023-07-31T11:57:45;97589.44;;;26.87;44.64
8894;BME280;4483;48.622;9.230;2023-07-31T12:00:15;97581.53;;;26.87;44.63
8894;BME280;4483;48.622;9.230;2023-07-31T12:02:42;97575.44;;;26.70;44.78
8894;BME280;4483;48.622;9.230;2023-07-31T12:05:10;97574.09;;;26.66;45.41
8894;BME280;4483;48.622;9.230;2023-07-31T12:07:45;97574.13;;;26.58;45.37
8894;BME280;4483;48.622;9.230;2023-07-31T12:10:22;97559.13;;;26.51;44.76
8894;BME280;4483;48.622;9.230;2023-07-31T12:12:56;97563.06;;;26.47;45.17
8894;BME280;4483;48.622;9.230;2023-07-31T12:15:33;97548.41;;;26.44;46.33
8894;BME280;4483;48.622;9.230;2023-07-31T12:18:00;97548.41;;;26.36;46.42
8894;BME280;4483;48.622;9.230;2023-07-31T12:20:27;97546.44;;;26.22;47.12
8894;BME280;4483;48.622;9.230;2023-07-31T12:22:56;97546.78;;;26.11;46.86
8894;BME280;4483;48.622;9.230;2023-07-31T12:25:28;97544.09;;;25.95;46.84
8894;BME280;4483;48.622;9.230;2023-07-31T12:27:55;97540.00;;;25.93;46.89
8894;BME280;4483;48.622;9.230;2023-07-31T12:30:32;97546.91;;;26.02;47.38
8894;BME280;4483;48.622;9.230;2023-07-31T12:33:03;97542.47;;;26.02;46.95
8894;BME280;4483;48.622;9.230;2023-07-31T12:35:35;97534.88;;;25.99;47.10
8894;BME280;4483;48.622;9.230;2023-07-31T12:38:02;97539.50;;;25.89;47.40
8894;BME280;4483;48.622;9.230;2023-07-31T12:40:28;97545.09;;;25.78;47.83
8894;BME280;4483;48.622;9.230;2023-07-31T12:42:55;97539.63;;;25.63;47.97
8894;BME280;4483;48.622;9.230;2023-07-31T12:45:22;97526.91;;;25.59;47.89
8894;BME280;4483;48.622;9.230;2023-07-31T12:47:50;97524.59;;;25.48;48.36
8894;BME280;4483;48.622;9.230;2023-07-31T12:50:16;97519.16;;;25.49;48.40
8894;BME280;4483;48.622;9.230;2023-07-31T12:52:43;97516.50;;;25.49;48.61
8894;BME280;4483;48.622;9.230;2023-07-31T12:55:09;97510.91;;;25.60;48.79
8894;BME280;4483;48.622;9.230;2023-07-31T12:57:37;97503.69;;;25.70;48.83
8894;BME280;4483;48.622;9.230;2023-07-31T13:00:04;97499.88;;;25.81;48.75
8894;BME280;4483;48.622;9.230;2023-07-31T13:02:32;97490.00;;;25.91;49.05
8894;BME280;4483;48.622;9.230;2023-07-31T13:04:59;97479.78;;;26.04;48.77
8894;BME280;4483;48.622;9.230;2023-07-31T13:07:26;97468.56;;;26.10;48.57
8894;BME280;4483;48.622;9.230;2023-07-31T13:09:53;97469.56;;;26.09;48.37
8894;BME280;4483;48.622;9.230;2023-07-31T13:12:19;97477.00;;;26.06;48.43
8894;BME280;4483;48.622;9.230;2023-07-31T13:14:46;97464.59;;;26.06;48.47
8894;BME280;4483;48.622;9.230;2023-07-31T13:17:13;97475.47;;;26.27;48.42
8894;BME280;4483;48.622;9.230;2023-07-31T13:19:39;97461.06;;;26.46;48.01